Dock, Kentucky
Current Conditions -  °F | °C
As of 9:55 AM on Monday 24 Nov 2014 (Local Time) from KSJS Reporting Station
Broken Clouds Broken Clouds  
Wind Chill: 67°   Ceiling: 6000
Heat Index: 67°   Visibility: 10mi
Dew Point: 46°   Wind: 15mph
Humidity: 48%   Direction: 240°WSW
Pressure: 29.56"   Gusts: 28mph
Location:  37.6405°N, 82.8256°W
Report Text: KSJS 241455Z AUTO 24013G24KT 10SM BKN060 BKN070 19/08 A2956 RMK AO2 T01920080
Loading
Personal Weather Stations






























Interactive Weather Map New forecast layout! Learn more

10-Day Weather Forecast

Advertisements
Track Severe Weather on mobile